sensor_id;sensor_type;location;lat;lon;timestamp;P1;durP1;ratioP1;P2;durP2;ratioP2
62925;SDS011;55732;52.248;-0.844;2023-06-22T00:01:50;6.60;;;4.50;;
62925;SDS011;55732;52.248;-0.844;2023-06-22T00:04:16;10.20;;;4.50;;
62925;SDS011;55732;52.248;-0.844;2023-06-22T00:06:41;6.00;;;4.20;;
62925;SDS011;55732;52.248;-0.844;2023-06-22T00:09:07;6.30;;;4.30;;
62925;SDS011;55732;52.248;-0.844;2023-06-22T00:11:35;6.40;;;4.40;;
62925;SDS011;55732;52.248;-0.844;2023-06-22T00:14:01;10.90;;;4.60;;
62925;SDS011;55732;52.248;-0.844;2023-06-22T00:16:27;6.90;;;4.60;;
62925;SDS011;55732;52.248;-0.844;2023-06-22T00:18:52;7.20;;;4.70;;
62925;SDS011;55732;52.248;-0.844;2023-06-22T00:21:17;5.80;;;4.60;;
62925;SDS011;55732;52.248;-0.844;2023-06-22T00:26:10;5.10;;;4.50;;
62925;SDS011;55732;52.248;-0.844;2023-06-22T00:28:36;7.40;;;4.50;;
62925;SDS011;55732;52.248;-0.844;2023-06-22T00:31:01;4.90;;;4.40;;
62925;SDS011;55732;52.248;-0.844;2023-06-22T00:33:27;6.20;;;4.60;;
62925;SDS011;55732;52.248;-0.844;2023-06-22T00:35:53;5.70;;;4.30;;
62925;SDS011;55732;52.248;-0.844;2023-06-22T00:38:19;9.20;;;4.60;;
62925;SDS011;55732;52.248;-0.844;2023-06-22T00:40:44;6.80;;;4.50;;
62925;SDS011;55732;52.248;-0.844;2023-06-22T00:43:13;5.00;;;4.30;;
62925;SDS011;55732;52.248;-0.844;2023-06-22T00:45:39;7.70;;;4.70;;
62925;SDS011;55732;52.248;-0.844;2023-06-22T00:48:05;5.20;;;4.40;;
62925;SDS011;55732;52.248;-0.844;2023-06-22T00:50:31;6.00;;;4.60;;
62925;SDS011;55732;52.248;-0.844;2023-06-22T00:53:03;6.30;;;4.40;;
62925;SDS011;55732;52.248;-0.844;2023-06-22T00:55:33;8.40;;;4.40;;
62925;SDS011;55732;52.248;-0.844;2023-06-22T00:58:02;8.80;;;4.40;;
62925;SDS011;55732;52.248;-0.844;2023-06-22T01:00:32;6.30;;;4.10;;
62925;SDS011;55732;52.248;-0.844;2023-06-22T01:02:58;9.10;;;4.50;;
62925;SDS011;55732;52.248;-0.844;2023-06-22T01:05:24;6.10;;;4.70;;
62925;SDS011;55732;52.248;-0.844;2023-06-22T01:16:06;5.20;;;4.50;;
62925;SDS011;55732;52.248;-0.844;2023-06-22T01:18:36;6.40;;;4.40;;
62925;SDS011;55732;52.248;-0.844;2023-06-22T01:21:07;9.60;;;4.80;;
62925;SDS011;55732;52.248;-0.844;2023-06-22T01:29:08;10.20;;;5.00;;
62925;SDS011;55732;52.248;-0.844;2023-06-22T01:31:37;6.20;;;4.50;;
62925;SDS011;55732;52.248;-0.844;2023-06-22T01:34:05;8.50;;;5.30;;
62925;SDS011;55732;52.248;-0.844;2023-06-22T01:36:33;8.80;;;4.80;;
62925;SDS011;55732;52.248;-0.844;2023-06-22T01:38:59;6.40;;;5.00;;
62925;SDS011;55732;52.248;-0.844;2023-06-22T01:41:27;7.50;;;5.50;;
62925;SDS011;55732;52.248;-0.844;2023-06-22T01:43:55;6.90;;;4.70;;
62925;SDS011;55732;52.248;-0.844;2023-06-22T01:46:21;8.40;;;5.10;;
62925;SDS011;55732;52.248;-0.844;2023-06-22T01:48:47;6.90;;;4.80;;
62925;SDS011;55732;52.248;-0.844;2023-06-22T01:51:14;5.70;;;4.70;;
62925;SDS011;55732;52.248;-0.844;2023-06-22T01:53:40;6.40;;;4.60;;
62925;SDS011;55732;52.248;-0.844;2023-06-22T01:56:05;6.50;;;4.70;;
62925;SDS011;55732;52.248;-0.844;2023-06-22T01:58:31;7.00;;;4.50;;
62925;SDS011;55732;52.248;-0.844;2023-06-22T02:01:04;6.20;;;5.00;;
62925;SDS011;55732;52.248;-0.844;2023-06-22T02:03:34;6.60;;;4.90;;
62925;SDS011;55732;52.248;-0.844;2023-06-22T02:06:06;6.30;;;5.20;;
62925;SDS011;55732;52.248;-0.844;2023-06-22T02:08:40;5.70;;;4.70;;
62925;SDS011;55732;52.248;-0.844;2023-06-22T02:11:09;7.80;;;4.80;;
62925;SDS011;55732;52.248;-0.844;2023-06-22T02:13:37;5.00;;;4.50;;
62925;SDS011;55732;52.248;-0.844;2023-06-22T02:16:08;7.40;;;5.30;;
62925;SDS011;55732;52.248;-0.844;2023-06-22T02:21:01;8.20;;;4.70;;
62925;SDS011;55732;52.248;-0.844;2023-06-22T02:23:27;7.00;;;5.10;;
62925;SDS011;55732;52.248;-0.844;2023-06-22T02:25:52;5.60;;;4.90;;
62925;SDS011;55732;52.248;-0.844;2023-06-22T02:28:17;6.60;;;5.00;;
62925;SDS011;55732;52.248;-0.844;2023-06-22T02:30:43;7.10;;;5.20;;
62925;SDS011;55732;52.248;-0.844;2023-06-22T02:33:08;7.60;;;5.00;;
62925;SDS011;55732;52.248;-0.844;2023-06-22T02:35:33;5.90;;;4.90;;
62925;SDS011;55732;52.248;-0.844;2023-06-22T02:38:00;7.20;;;5.30;;
62925;SDS011;55732;52.248;-0.844;2023-06-22T02:40:27;6.50;;;5.00;;
62925;SDS011;55732;52.248;-0.844;2023-06-22T02:42:54;8.80;;;5.00;;
62925;SDS011;55732;52.248;-0.844;2023-06-22T02:45:20;7.40;;;5.30;;
62925;SDS011;55732;52.248;-0.844;2023-06-22T02:47:45;7.00;;;5.30;;
62925;SDS011;55732;52.248;-0.844;2023-06-22T02:50:12;9.50;;;5.60;;
62925;SDS011;55732;52.248;-0.844;2023-06-22T02:52:38;6.60;;;5.00;;
62925;SDS011;55732;52.248;-0.844;2023-06-22T02:55:04;9.20;;;4.80;;
62925;SDS011;55732;52.248;-0.844;2023-06-22T02:57:30;8.50;;;5.50;;
62925;SDS011;55732;52.248;-0.844;2023-06-22T02:59:56;8.80;;;5.40;;
62925;SDS011;55732;52.248;-0.844;2023-06-22T03:02:21;5.60;;;4.90;;
62925;SDS011;55732;52.248;-0.844;2023-06-22T03:04:47;7.10;;;5.00;;
62925;SDS011;55732;52.248;-0.844;2023-06-22T03:07:13;9.60;;;5.40;;
62925;SDS011;55732;52.248;-0.844;2023-06-22T03:09:39;7.00;;;5.10;;
62925;SDS011;55732;52.248;-0.844;2023-06-22T03:12:04;7.60;;;5.00;;
62925;SDS011;55732;52.248;-0.844;2023-06-22T03:14:30;6.30;;;4.90;;
62925;SDS011;55732;52.248;-0.844;2023-06-22T03:16:55;6.60;;;5.20;;
62925;SDS011;55732;52.248;-0.844;2023-06-22T03:19:26;7.30;;;5.10;;
62925;SDS011;55732;52.248;-0.844;2023-06-22T03:21:53;7.20;;;5.60;;
62925;SDS011;55732;52.248;-0.844;2023-06-22T03:24:18;7.70;;;5.50;;
62925;SDS011;55732;52.248;-0.844;2023-06-22T03:26:44;7.80;;;4.80;;
62925;SDS011;55732;52.248;-0.844;2023-06-22T03:31:36;6.40;;;4.90;;
62925;SDS011;55732;52.248;-0.844;2023-06-22T03:34:02;8.30;;;5.20;;
62925;SDS011;55732;52.248;-0.844;2023-06-22T03:36:27;6.80;;;5.20;;
62925;SDS011;55732;52.248;-0.844;2023-06-22T03:38:52;6.30;;;4.80;;
62925;SDS011;55732;52.248;-0.844;2023-06-22T03:41:18;7.10;;;5.10;;
62925;SDS011;55732;52.248;-0.844;2023-06-22T03:43:43;7.40;;;4.80;;
62925;SDS011;55732;52.248;-0.844;2023-06-22T03:46:09;7.60;;;4.70;;
62925;SDS011;55732;52.248;-0.844;2023-06-22T03:48:34;7.50;;;5.00;;
62925;SDS011;55732;52.248;-0.844;2023-06-22T03:51:00;7.50;;;5.20;;
62925;SDS011;55732;52.248;-0.844;2023-06-22T03:53:26;6.70;;;5.50;;
62925;SDS011;55732;52.248;-0.844;2023-06-22T03:55:52;6.50;;;5.00;;
62925;SDS011;55732;52.248;-0.844;2023-06-22T03:58:18;6.60;;;5.00;;
62925;SDS011;55732;52.248;-0.844;2023-06-22T04:00:48;8.00;;;5.50;;
62925;SDS011;55732;52.248;-0.844;2023-06-22T04:03:17;8.00;;;5.60;;
62925;SDS011;55732;52.248;-0.844;2023-06-22T04:05:46;6.20;;;5.20;;
62925;SDS011;55732;52.248;-0.844;2023-06-22T04:08:13;7.20;;;4.90;;
62925;SDS011;55732;52.248;-0.844;2023-06-22T04:10:39;8.00;;;5.30;;
62925;SDS011;55732;52.248;-0.844;2023-06-22T04:13:04;7.10;;;5.40;;
62925;SDS011;55732;52.248;-0.844;2023-06-22T04:15:30;10.70;;;5.60;;
62925;SDS011;55732;52.248;-0.844;2023-06-22T04:17:56;8.40;;;5.20;;
62925;SDS011;55732;52.248;-0.844;2023-06-22T04:20:22;7.40;;;5.40;;
62925;SDS011;55732;52.248;-0.844;2023-06-22T04:22:50;9.80;;;5.00;;
62925;SDS011;55732;52.248;-0.844;2023-06-22T04:25:15;6.40;;;5.50;;
62925;SDS011;55732;52.248;-0.844;2023-06-22T04:27:42;7.30;;;5.30;;
62925;SDS011;55732;52.248;-0.844;2023-06-22T04:30:07;7.20;;;5.00;;
62925;SDS011;55732;52.248;-0.844;2023-06-22T04:32:36;6.20;;;5.10;;
62925;SDS011;55732;52.248;-0.844;2023-06-22T04:35:02;7.40;;;5.10;;
62925;SDS011;55732;52.248;-0.844;2023-06-22T04:37:29;8.20;;;5.10;;
62925;SDS011;55732;52.248;-0.844;2023-06-22T04:39:56;7.20;;;4.90;;
62925;SDS011;55732;52.248;-0.844;2023-06-22T04:42:21;7.10;;;5.20;;
62925;SDS011;55732;52.248;-0.844;2023-06-22T04:44:46;7.10;;;5.00;;
62925;SDS011;55732;52.248;-0.844;2023-06-22T04:47:11;7.30;;;4.80;;
62925;SDS011;55732;52.248;-0.844;2023-06-22T04:49:37;12.80;;;5.70;;
62925;SDS011;55732;52.248;-0.844;2023-06-22T04:52:09;6.10;;;4.70;;
62925;SDS011;55732;52.248;-0.844;2023-06-22T04:54:36;7.70;;;5.10;;
62925;SDS011;55732;52.248;-0.844;2023-06-22T04:57:04;8.30;;;5.20;;
62925;SDS011;55732;52.248;-0.844;2023-06-22T04:59:34;6.40;;;5.00;;
62925;SDS011;55732;52.248;-0.844;2023-06-22T05:02:01;7.80;;;5.20;;
62925;SDS011;55732;52.248;-0.844;2023-06-22T05:04:27;7.40;;;4.90;;
62925;SDS011;55732;52.248;-0.844;2023-06-22T05:06:56;6.70;;;5.00;;
62925;SDS011;55732;52.248;-0.844;2023-06-22T05:09:22;9.40;;;5.60;;
62925;SDS011;55732;52.248;-0.844;2023-06-22T05:11:47;7.80;;;5.60;;
62925;SDS011;55732;52.248;-0.844;2023-06-22T05:14:13;9.50;;;5.10;;
62925;SDS011;55732;52.248;-0.844;2023-06-22T05:16:40;6.10;;;5.20;;
62925;SDS011;55732;52.248;-0.844;2023-06-22T05:19:07;8.90;;;5.40;;
62925;SDS011;55732;52.248;-0.844;2023-06-22T05:21:32;8.50;;;5.70;;
62925;SDS011;55732;52.248;-0.844;2023-06-22T05:23:58;9.20;;;5.40;;
62925;SDS011;55732;52.248;-0.844;2023-06-22T05:26:28;8.40;;;5.80;;
62925;SDS011;55732;52.248;-0.844;2023-06-22T05:29:02;7.10;;;5.70;;
62925;SDS011;55732;52.248;-0.844;2023-06-22T05:31:28;8.00;;;5.70;;
62925;SDS011;55732;52.248;-0.844;2023-06-22T05:33:54;7.90;;;5.50;;
62925;SDS011;55732;52.248;-0.844;2023-06-22T05:36:20;6.40;;;5.40;;
62925;SDS011;55732;52.248;-0.844;2023-06-22T05:38:46;9.40;;;6.10;;
62925;SDS011;55732;52.248;-0.844;2023-06-22T05:41:12;9.90;;;6.00;;
62925;SDS011;55732;52.248;-0.844;2023-06-22T05:43:38;7.90;;;5.70;;
62925;SDS011;55732;52.248;-0.844;2023-06-22T05:46:04;9.70;;;6.00;;
62925;SDS011;55732;52.248;-0.844;2023-06-22T05:48:30;8.70;;;6.00;;
62925;SDS011;55732;52.248;-0.844;2023-06-22T05:50:55;8.00;;;6.10;;
62925;SDS011;55732;52.248;-0.844;2023-06-22T05:53:21;8.90;;;5.70;;
62925;SDS011;55732;52.248;-0.844;2023-06-22T05:55:46;9.80;;;6.30;;
62925;SDS011;55732;52.248;-0.844;2023-06-22T05:58:12;10.00;;;6.00;;
62925;SDS011;55732;52.248;-0.844;2023-06-22T06:00:38;11.00;;;6.30;;
62925;SDS011;55732;52.248;-0.844;2023-06-22T06:03:04;9.40;;;6.30;;
62925;SDS011;55732;52.248;-0.844;2023-06-22T06:05:30;11.80;;;5.90;;
62925;SDS011;55732;52.248;-0.844;2023-06-22T06:08:03;10.10;;;6.10;;
62925;SDS011;55732;52.248;-0.844;2023-06-22T06:10:31;9.80;;;5.40;;
62925;SDS011;55732;52.248;-0.844;2023-06-22T06:12:57;9.50;;;5.50;;
62925;SDS011;55732;52.248;-0.844;2023-06-22T06:15:23;8.40;;;5.20;;
62925;SDS011;55732;52.248;-0.844;2023-06-22T06:17:49;13.20;;;5.90;;
62925;SDS011;55732;52.248;-0.844;2023-06-22T06:20:19;8.60;;;5.60;;
62925;SDS011;55732;52.248;-0.844;2023-06-22T06:22:47;10.00;;;5.80;;
62925;SDS011;55732;52.248;-0.844;2023-06-22T06:25:13;11.10;;;5.10;;
62925;SDS011;55732;52.248;-0.844;2023-06-22T06:27:42;8.80;;;5.30;;
62925;SDS011;55732;52.248;-0.844;2023-06-22T06:30:17;7.60;;;5.50;;
62925;SDS011;55732;52.248;-0.844;2023-06-22T06:32:44;7.50;;;5.00;;
62925;SDS011;55732;52.248;-0.844;2023-06-22T06:35:13;9.30;;;4.90;;
62925;SDS011;55732;52.248;-0.844;2023-06-22T06:37:41;8.10;;;5.10;;
62925;SDS011;55732;52.248;-0.844;2023-06-22T06:40:08;8.80;;;5.50;;
62925;SDS011;55732;52.248;-0.844;2023-06-22T06:42:38;6.80;;;4.90;;
62925;SDS011;55732;52.248;-0.844;2023-06-22T06:45:07;7.50;;;5.10;;
62925;SDS011;55732;52.248;-0.844;2023-06-22T06:47:33;7.30;;;5.10;;
62925;SDS011;55732;52.248;-0.844;2023-06-22T06:49:58;8.80;;;5.10;;
62925;SDS011;55732;52.248;-0.844;2023-06-22T06:52:24;8.90;;;4.90;;
62925;SDS011;55732;52.248;-0.844;2023-06-22T06:54:50;8.40;;;5.10;;
62925;SDS011;55732;52.248;-0.844;2023-06-22T06:57:17;7.60;;;4.90;;
62925;SDS011;55732;52.248;-0.844;2023-06-22T06:59:45;8.10;;;4.90;;
62925;SDS011;55732;52.248;-0.844;2023-06-22T07:02:11;7.90;;;4.70;;
62925;SDS011;55732;52.248;-0.844;2023-06-22T07:04:36;7.20;;;4.40;;
62925;SDS011;55732;52.248;-0.844;2023-06-22T07:07:02;6.70;;;4.20;;
62925;SDS011;55732;52.248;-0.844;2023-06-22T07:09:28;6.80;;;4.40;;
62925;SDS011;55732;52.248;-0.844;2023-06-22T07:11:53;7.60;;;4.60;;
62925;SDS011;55732;52.248;-0.844;2023-06-22T07:14:18;10.10;;;5.60;;
62925;SDS011;55732;52.248;-0.844;2023-06-22T07:16:44;7.60;;;5.30;;
62925;SDS011;55732;52.248;-0.844;2023-06-22T07:19:11;6.40;;;5.00;;
62925;SDS011;55732;52.248;-0.844;2023-06-22T07:21:37;9.10;;;4.60;;
62925;SDS011;55732;52.248;-0.844;2023-06-22T07:24:02;11.60;;;5.80;;
62925;SDS011;55732;52.248;-0.844;2023-06-22T07:26:28;10.30;;;5.20;;
62925;SDS011;55732;52.248;-0.844;2023-06-22T07:28:53;12.40;;;5.00;;
62925;SDS011;55732;52.248;-0.844;2023-06-22T07:31:18;5.20;;;4.70;;
62925;SDS011;55732;52.248;-0.844;2023-06-22T07:33:44;9.60;;;4.90;;
62925;SDS011;55732;52.248;-0.844;2023-06-22T07:36:09;11.90;;;4.80;;
62925;SDS011;55732;52.248;-0.844;2023-06-22T07:38:34;7.20;;;4.80;;
62925;SDS011;55732;52.248;-0.844;2023-06-22T07:41:00;8.60;;;4.50;;
62925;SDS011;55732;52.248;-0.844;2023-06-22T07:43:26;10.50;;;4.50;;
62925;SDS011;55732;52.248;-0.844;2023-06-22T07:45:51;7.80;;;4.70;;
62925;SDS011;55732;52.248;-0.844;2023-06-22T07:48:19;6.80;;;4.20;;
62925;SDS011;55732;52.248;-0.844;2023-06-22T07:50:46;5.20;;;4.00;;
62925;SDS011;55732;52.248;-0.844;2023-06-22T07:53:11;9.60;;;6.80;;
62925;SDS011;55732;52.248;-0.844;2023-06-22T07:55:36;8.00;;;5.30;;
62925;SDS011;55732;52.248;-0.844;2023-06-22T07:58:02;12.70;;;5.20;;
62925;SDS011;55732;52.248;-0.844;2023-06-22T08:00:27;9.30;;;4.80;;
62925;SDS011;55732;52.248;-0.844;2023-06-22T08:02:52;7.50;;;3.60;;
62925;SDS011;55732;52.248;-0.844;2023-06-22T08:05:18;8.10;;;4.80;;
62925;SDS011;55732;52.248;-0.844;2023-06-22T08:07:43;7.10;;;4.10;;
62925;SDS011;55732;52.248;-0.844;2023-06-22T08:10:12;9.10;;;4.90;;
62925;SDS011;55732;52.248;-0.844;2023-06-22T08:12:41;6.30;;;4.20;;
62925;SDS011;55732;52.248;-0.844;2023-06-22T08:15:06;5.40;;;3.80;;
62925;SDS011;55732;52.248;-0.844;2023-06-22T08:17:32;9.10;;;4.10;;
62925;SDS011;55732;52.248;-0.844;2023-06-22T08:19:58;7.00;;;4.10;;
62925;SDS011;55732;52.248;-0.844;2023-06-22T08:22:25;5.60;;;3.90;;
62925;SDS011;55732;52.248;-0.844;2023-06-22T08:24:50;5.80;;;4.20;;
62925;SDS011;55732;52.248;-0.844;2023-06-22T08:27:16;5.80;;;3.70;;
62925;SDS011;55732;52.248;-0.844;2023-06-22T08:29:43;5.60;;;3.50;;
62925;SDS011;55732;52.248;-0.844;2023-06-22T08:32:10;7.30;;;3.20;;
62925;SDS011;55732;52.248;-0.844;2023-06-22T08:34:36;6.20;;;3.60;;
62925;SDS011;55732;52.248;-0.844;2023-06-22T08:37:02;5.30;;;3.10;;
62925;SDS011;55732;52.248;-0.844;2023-06-22T08:39:31;7.70;;;3.20;;
62925;SDS011;55732;52.248;-0.844;2023-06-22T08:44:22;5.00;;;3.20;;
62925;SDS011;55732;52.248;-0.844;2023-06-22T08:46:48;6.90;;;3.00;;
62925;SDS011;55732;52.248;-0.844;2023-06-22T08:49:13;5.40;;;3.00;;
62925;SDS011;55732;52.248;-0.844;2023-06-22T08:51:38;4.60;;;2.90;;
62925;SDS011;55732;52.248;-0.844;2023-06-22T08:54:03;6.40;;;2.60;;
62925;SDS011;55732;52.248;-0.844;2023-06-22T08:56:29;5.10;;;2.70;;
62925;SDS011;55732;52.248;-0.844;2023-06-22T08:58:55;3.90;;;2.70;;
62925;SDS011;55732;52.248;-0.844;2023-06-22T09:01:21;3.60;;;2.70;;
62925;SDS011;55732;52.248;-0.844;2023-06-22T09:03:47;4.10;;;2.60;;
62925;SDS011;55732;52.248;-0.844;2023-06-22T09:06:19;4.80;;;2.90;;
62925;SDS011;55732;52.248;-0.844;2023-06-22T09:08:46;4.30;;;2.80;;
62925;SDS011;55732;52.248;-0.844;2023-06-22T09:11:12;3.90;;;2.20;;
62925;SDS011;55732;52.248;-0.844;2023-06-22T09:16:02;3.30;;;2.20;;
62925;SDS011;55732;52.248;-0.844;2023-06-22T09:18:28;5.70;;;2.10;;
62925;SDS011;55732;52.248;-0.844;2023-06-22T09:20:53;4.10;;;2.70;;
62925;SDS011;55732;52.248;-0.844;2023-06-22T09:25:44;4.70;;;2.40;;
62925;SDS011;55732;52.248;-0.844;2023-06-22T09:33:00;4.70;;;2.90;;
62925;SDS011;55732;52.248;-0.844;2023-06-22T09:35:26;4.30;;;3.00;;
62925;SDS011;55732;52.248;-0.844;2023-06-22T09:37:51;5.90;;;2.80;;
62925;SDS011;55732;52.248;-0.844;2023-06-22T09:40:17;4.90;;;2.90;;
62925;SDS011;55732;52.248;-0.844;2023-06-22T09:42:42;5.30;;;2.60;;
62925;SDS011;55732;52.248;-0.844;2023-06-22T09:45:08;6.70;;;3.20;;
62925;SDS011;55732;52.248;-0.844;2023-06-22T09:47:33;5.70;;;3.10;;
62925;SDS011;55732;52.248;-0.844;2023-06-22T09:49:59;6.60;;;3.00;;
62925;SDS011;55732;52.248;-0.844;2023-06-22T09:52:24;4.90;;;3.00;;
62925;SDS011;55732;52.248;-0.844;2023-06-22T09:54:50;4.90;;;2.80;;
62925;SDS011;55732;52.248;-0.844;2023-06-22T09:57:16;5.70;;;2.80;;
62925;SDS011;55732;52.248;-0.844;2023-06-22T09:59:41;3.80;;;2.90;;
62925;SDS011;55732;52.248;-0.844;2023-06-22T10:02:06;5.80;;;3.20;;
62925;SDS011;55732;52.248;-0.844;2023-06-22T10:04:33;5.40;;;3.10;;
62925;SDS011;55732;52.248;-0.844;2023-06-22T10:06:59;3.80;;;3.30;;
62925;SDS011;55732;52.248;-0.844;2023-06-22T10:09:24;6.00;;;3.30;;
62925;SDS011;55732;52.248;-0.844;2023-06-22T10:11:50;6.00;;;3.20;;
62925;SDS011;55732;52.248;-0.844;2023-06-22T10:14:15;4.50;;;3.20;;
62925;SDS011;55732;52.248;-0.844;2023-06-22T10:16:41;4.50;;;3.10;;
62925;SDS011;55732;52.248;-0.844;2023-06-22T10:19:07;4.70;;;3.20;;
62925;SDS011;55732;52.248;-0.844;2023-06-22T10:21:32;3.80;;;3.00;;
62925;SDS011;55732;52.248;-0.844;2023-06-22T10:23:58;5.70;;;2.80;;
62925;SDS011;55732;52.248;-0.844;2023-06-22T10:26:26;6.70;;;3.10;;
62925;SDS011;55732;52.248;-0.844;2023-06-22T10:28:54;6.10;;;3.10;;
62925;SDS011;55732;52.248;-0.844;2023-06-22T10:31:19;5.10;;;3.10;;
62925;SDS011;55732;52.248;-0.844;2023-06-22T10:33:44;8.40;;;3.00;;
62925;SDS011;55732;52.248;-0.844;2023-06-22T10:36:10;8.60;;;3.40;;
62925;SDS011;55732;52.248;-0.844;2023-06-22T10:38:36;6.70;;;3.00;;
62925;SDS011;55732;52.248;-0.844;2023-06-22T10:41:01;5.40;;;3.20;;
62925;SDS011;55732;52.248;-0.844;2023-06-22T10:43:27;7.60;;;3.40;;
62925;SDS011;55732;52.248;-0.844;2023-06-22T10:45:52;7.30;;;3.50;;
62925;SDS011;55732;52.248;-0.844;2023-06-22T10:48:18;6.30;;;3.30;;
62925;SDS011;55732;52.248;-0.844;2023-06-22T10:50:43;3.90;;;2.90;;
62925;SDS011;55732;52.248;-0.844;2023-06-22T10:53:08;4.70;;;3.10;;
62925;SDS011;55732;52.248;-0.844;2023-06-22T10:55:34;11.20;;;3.10;;
62925;SDS011;55732;52.248;-0.844;2023-06-22T10:57:59;6.90;;;3.10;;
62925;SDS011;55732;52.248;-0.844;2023-06-22T11:00:24;4.10;;;3.10;;
62925;SDS011;55732;52.248;-0.844;2023-06-22T11:02:50;6.80;;;3.10;;
62925;SDS011;55732;52.248;-0.844;2023-06-22T11:05:16;6.40;;;3.40;;
62925;SDS011;55732;52.248;-0.844;2023-06-22T11:07:42;4.20;;;3.10;;
62925;SDS011;55732;52.248;-0.844;2023-06-22T11:10:09;5.60;;;2.90;;
62925;SDS011;55732;52.248;-0.844;2023-06-22T11:12:34;4.70;;;3.20;;
62925;SDS011;55732;52.248;-0.844;2023-06-22T11:14:59;4.20;;;3.10;;
62925;SDS011;55732;52.248;-0.844;2023-06-22T11:17:25;8.00;;;3.00;;
62925;SDS011;55732;52.248;-0.844;2023-06-22T11:19:51;12.40;;;3.10;;
62925;SDS011;55732;52.248;-0.844;2023-06-22T11:22:16;4.80;;;2.80;;
62925;SDS011;55732;52.248;-0.844;2023-06-22T11:24:42;4.10;;;2.90;;
62925;SDS011;55732;52.248;-0.844;2023-06-22T11:27:07;5.20;;;2.90;;
62925;SDS011;55732;52.248;-0.844;2023-06-22T11:29:32;5.20;;;2.90;;
62925;SDS011;55732;52.248;-0.844;2023-06-22T11:31:58;6.40;;;3.10;;
62925;SDS011;55732;52.248;-0.844;2023-06-22T11:34:23;4.40;;;2.60;;
62925;SDS011;55732;52.248;-0.844;2023-06-22T11:36:48;11.00;;;3.30;;
62925;SDS011;55732;52.248;-0.844;2023-06-22T11:39:14;5.70;;;2.90;;
62925;SDS011;55732;52.248;-0.844;2023-06-22T11:41:40;5.40;;;2.90;;
62925;SDS011;55732;52.248;-0.844;2023-06-22T11:44:06;6.10;;;3.30;;
62925;SDS011;55732;52.248;-0.844;2023-06-22T11:46:32;7.40;;;3.30;;
62925;SDS011;55732;52.248;-0.844;2023-06-22T11:48:57;5.70;;;2.90;;
62925;SDS011;55732;52.248;-0.844;2023-06-22T11:51:23;7.00;;;3.40;;
62925;SDS011;55732;52.248;-0.844;2023-06-22T11:53:48;4.80;;;3.10;;
62925;SDS011;55732;52.248;-0.844;2023-06-22T11:56:13;7.10;;;2.90;;
62925;SDS011;55732;52.248;-0.844;2023-06-22T11:58:39;4.90;;;2.90;;
62925;SDS011;55732;52.248;-0.844;2023-06-22T12:01:04;9.90;;;3.00;;
62925;SDS011;55732;52.248;-0.844;2023-06-22T12:03:30;3.90;;;2.80;;
62925;SDS011;55732;52.248;-0.844;2023-06-22T12:05:55;4.00;;;2.80;;
62925;SDS011;55732;52.248;-0.844;2023-06-22T12:08:20;4.30;;;2.90;;
62925;SDS011;55732;52.248;-0.844;2023-06-22T12:10:46;5.00;;;2.90;;
62925;SDS011;55732;52.248;-0.844;2023-06-22T12:13:11;6.10;;;2.70;;
62925;SDS011;55732;52.248;-0.844;2023-06-22T12:15:37;5.50;;;3.20;;
62925;SDS011;55732;52.248;-0.844;2023-06-22T12:18:03;4.50;;;2.90;;
62925;SDS011;55732;52.248;-0.844;2023-06-22T12:20:28;7.00;;;2.80;;
62925;SDS011;55732;52.248;-0.844;2023-06-22T12:22:53;6.10;;;2.70;;
62925;SDS011;55732;52.248;-0.844;2023-06-22T12:25:21;4.40;;;2.90;;
62925;SDS011;55732;52.248;-0.844;2023-06-22T12:27:47;3.90;;;2.90;;
62925;SDS011;55732;52.248;-0.844;2023-06-22T12:30:12;3.90;;;2.60;;
62925;SDS011;55732;52.248;-0.844;2023-06-22T12:32:38;4.00;;;3.00;;
62925;SDS011;55732;52.248;-0.844;2023-06-22T12:35:03;3.70;;;2.80;;
62925;SDS011;55732;52.248;-0.844;2023-06-22T12:37:29;5.00;;;3.10;;
62925;SDS011;55732;52.248;-0.844;2023-06-22T12:39:56;4.50;;;3.10;;
62925;SDS011;55732;52.248;-0.844;2023-06-22T12:42:22;3.70;;;2.90;;
62925;SDS011;55732;52.248;-0.844;2023-06-22T12:44:47;5.00;;;3.00;;
62925;SDS011;55732;52.248;-0.844;2023-06-22T12:47:12;3.40;;;2.80;;
62925;SDS011;55732;52.248;-0.844;2023-06-22T12:49:38;5.90;;;3.00;;
62925;SDS011;55732;52.248;-0.844;2023-06-22T12:52:08;5.00;;;2.70;;
62925;SDS011;55732;52.248;-0.844;2023-06-22T12:54:35;5.10;;;3.00;;
62925;SDS011;55732;52.248;-0.844;2023-06-22T12:57:01;9.00;;;2.60;;
62925;SDS011;55732;52.248;-0.844;2023-06-22T12:59:26;5.40;;;2.70;;
62925;SDS011;55732;52.248;-0.844;2023-06-22T13:01:51;6.00;;;2.90;;
62925;SDS011;55732;52.248;-0.844;2023-06-22T13:04:17;5.00;;;2.70;;
62925;SDS011;55732;52.248;-0.844;2023-06-22T13:06:43;5.70;;;2.90;;
62925;SDS011;55732;52.248;-0.844;2023-06-22T13:09:12;3.10;;;2.70;;
62925;SDS011;55732;52.248;-0.844;2023-06-22T13:11:38;3.60;;;2.60;;
62925;SDS011;55732;52.248;-0.844;2023-06-22T13:14:03;4.60;;;2.60;;
62925;SDS011;55732;52.248;-0.844;2023-06-22T13:16:29;4.40;;;2.90;;
62925;SDS011;55732;52.248;-0.844;2023-06-22T13:18:54;4.40;;;3.00;;
62925;SDS011;55732;52.248;-0.844;2023-06-22T13:21:19;3.20;;;2.70;;
62925;SDS011;55732;52.248;-0.844;2023-06-22T13:23:45;3.90;;;2.90;;
62925;SDS011;55732;52.248;-0.844;2023-06-22T13:26:10;3.00;;;2.50;;
62925;SDS011;55732;52.248;-0.844;2023-06-22T13:28:35;5.40;;;3.00;;
62925;SDS011;55732;52.248;-0.844;2023-06-22T13:31:01;4.00;;;2.70;;
62925;SDS011;55732;52.248;-0.844;2023-06-22T13:33:26;3.70;;;2.80;;
62925;SDS011;55732;52.248;-0.844;2023-06-22T13:35:51;2.90;;;2.40;;
62925;SDS011;55732;52.248;-0.844;2023-06-22T13:38:17;4.80;;;2.70;;
62925;SDS011;55732;52.248;-0.844;2023-06-22T13:40:42;3.70;;;3.10;;
62925;SDS011;55732;52.248;-0.844;2023-06-22T13:43:08;4.20;;;2.90;;
62925;SDS011;55732;52.248;-0.844;2023-06-22T13:45:33;3.20;;;2.90;;
62925;SDS011;55732;52.248;-0.844;2023-06-22T13:47:58;7.30;;;3.20;;
62925;SDS011;55732;52.248;-0.844;2023-06-22T13:50:24;3.60;;;3.00;;
62925;SDS011;55732;52.248;-0.844;2023-06-22T13:52:49;4.30;;;2.80;;
62925;SDS011;55732;52.248;-0.844;2023-06-22T13:55:15;4.30;;;3.20;;
62925;SDS011;55732;52.248;-0.844;2023-06-22T13:57:40;5.70;;;3.00;;
62925;SDS011;55732;52.248;-0.844;2023-06-22T14:00:06;6.20;;;3.10;;
62925;SDS011;55732;52.248;-0.844;2023-06-22T14:04:58;4.90;;;3.00;;
62925;SDS011;55732;52.248;-0.844;2023-06-22T14:07:24;8.90;;;3.20;;
62925;SDS011;55732;52.248;-0.844;2023-06-22T14:09:49;4.90;;;3.40;;
62925;SDS011;55732;52.248;-0.844;2023-06-22T14:12:15;5.60;;;2.90;;
62925;SDS011;55732;52.248;-0.844;2023-06-22T14:14:42;4.90;;;2.70;;
62925;SDS011;55732;52.248;-0.844;2023-06-22T14:17:08;5.60;;;3.00;;
62925;SDS011;55732;52.248;-0.844;2023-06-22T14:19:34;6.50;;;2.70;;
62925;SDS011;55732;52.248;-0.844;2023-06-22T14:21:59;4.00;;;2.50;;
62925;SDS011;55732;52.248;-0.844;2023-06-22T14:24:25;3.50;;;2.90;;
62925;SDS011;55732;52.248;-0.844;2023-06-22T14:26:50;3.80;;;3.10;;
62925;SDS011;55732;52.248;-0.844;2023-06-22T14:29:15;3.00;;;2.60;;
62925;SDS011;55732;52.248;-0.844;2023-06-22T14:31:44;8.70;;;2.70;;
62925;SDS011;55732;52.248;-0.844;2023-06-22T14:34:10;4.60;;;3.00;;
62925;SDS011;55732;52.248;-0.844;2023-06-22T14:36:35;3.00;;;2.70;;
62925;SDS011;55732;52.248;-0.844;2023-06-22T14:39:01;5.30;;;2.90;;
62925;SDS011;55732;52.248;-0.844;2023-06-22T14:41:26;3.50;;;2.80;;
62925;SDS011;55732;52.248;-0.844;2023-06-22T14:43:51;4.40;;;2.80;;
62925;SDS011;55732;52.248;-0.844;2023-06-22T14:46:17;4.50;;;2.90;;
62925;SDS011;55732;52.248;-0.844;2023-06-22T14:48:44;3.80;;;2.90;;
62925;SDS011;55732;52.248;-0.844;2023-06-22T14:51:09;6.50;;;2.90;;
62925;SDS011;55732;52.248;-0.844;2023-06-22T14:53:36;5.10;;;3.10;;
62925;SDS011;55732;52.248;-0.844;2023-06-22T14:56:02;3.70;;;3.10;;
62925;SDS011;55732;52.248;-0.844;2023-06-22T14:58:28;7.50;;;3.00;;
62925;SDS011;55732;52.248;-0.844;2023-06-22T15:00:58;5.30;;;3.00;;
62925;SDS011;55732;52.248;-0.844;2023-06-22T15:03:26;7.00;;;3.30;;